Time;durP1;ratioP1;P1;durP2;ratioP2;P2;SDS_P1;SDS_P2;PMS_P1;PMS_P2;Temp;Humidity;BMP_temperature;BMP_pressure;BME280_temperature;BME280_humidity;BME280_pressure;Samples;Min_cycle;Max_cycle;Signal;HPM_P1;HPM_P2
2022/01/24 00:01:40;;;;;;;44.83;33.20;;;7.60;70.00;;;;;;5068416;28;20021;-86
2022/01/24 00:04:08;;;;;;;49.47;35.15;;;7.60;70.00;;;;;;5067073;28;20034;-86
2022/01/24 00:06:35;;;;;;;48.42;34.92;;;7.60;70.00;;;;;;5068928;28;20082;-86
2022/01/24 00:09:03;;;;;;;49.08;33.33;;;7.60;70.10;;;;;;5068407;28;20431;-87
2022/01/24 00:11:45;;;;;;;44.47;33.22;;;7.60;70.10;;;;;;5068345;28;20142;-90
2022/01/24 00:14:50;;;;;;;49.60;34.83;;;7.60;70.10;;;;;;5067514;28;20074;-91
2022/01/24 00:17:11;;;;;;;46.83;34.97;;;7.60;70.10;;;;;;5067838;28;20036;-91
2022/01/24 00:27:52;;;;;;;48.63;33.60;;;7.60;70.10;;;;;;5068232;28;20489;-88
2022/01/24 00:30:19;;;;;;;50.70;35.03;;;7.60;70.10;;;;;;5067651;28;20458;-88
2022/01/24 00:32:45;;;;;;;47.60;33.60;;;7.60;70.20;;;;;;5068057;28;20036;-88
2022/01/24 00:35:11;;;;;;;50.08;34.85;;;7.60;70.20;;;;;;5067522;28;20125;-88
2022/01/24 00:37:38;;;;;;;48.65;35.17;;;7.60;70.20;;;;;;5066586;28;20040;-88
2022/01/24 00:40:05;;;;;;;49.75;35.42;;;7.60;70.20;;;;;;5067810;28;20404;-88
2022/01/24 00:42:40;;;;;;;45.42;33.17;;;7.50;70.10;;;;;;5066947;28;20430;-88
2022/01/24 00:45:13;;;;;;;48.35;36.13;;;7.50;70.10;;;;;;5067857;28;20028;-88
2022/01/24 00:55:24;;;;;;;46.15;33.35;;;7.50;70.20;;;;;;5067348;28;20040;-87
2022/01/24 00:57:50;;;;;;;47.08;32.97;;;7.50;70.20;;;;;;5066670;28;20161;-87
2022/01/24 01:00:17;;;;;;;46.83;34.05;;;7.50;70.20;;;;;;5066037;28;20476;-87
2022/01/24 01:02:43;;;;;;;45.15;32.65;;;7.50;70.20;;;;;;5066223;28;20519;-88
2022/01/24 01:18:04;;;;;;;45.92;32.75;;;7.50;70.30;;;;;;5070869;28;20055;-91
2022/01/24 01:18:54;;;;;;;47.35;34.83;;;7.50;70.20;;;;;;5057515;28;20488;-91
2022/01/24 01:21:20;;;;;;;49.00;34.80;;;7.50;70.20;;;;;;5067715;28;20044;-92
2022/01/24 01:23:52;;;;;;;45.30;34.08;;;7.50;70.20;;;;;;5050690;28;20435;-90
2022/01/24 01:26:41;;;;;;;46.93;33.43;;;7.50;70.20;;;;;;5068529;28;20025;-91
2022/01/24 01:29:17;;;;;;;46.00;33.53;;;7.50;70.20;;;;;;5068001;28;20031;-86
2022/01/24 01:31:57;;;;;;;45.95;34.30;;;7.50;70.30;;;;;;5065826;28;20032;-87
2022/01/24 01:37:20;;;;;;;44.50;33.42;;;7.50;70.30;;;;;;5065706;28;20031;-86
2022/01/24 01:55:54;;;;;;;47.72;33.78;;;7.40;70.20;;;;;;5070683;28;20052;-86
2022/01/24 01:58:22;;;;;;;41.10;32.67;;;7.50;70.40;;;;;;5070136;28;20138;-86
2022/01/24 02:00:57;;;;;;;43.42;32.85;;;7.40;70.30;;;;;;5070465;28;20051;-85
2022/01/24 02:03:25;;;;;;;42.78;32.25;;;7.40;70.30;;;;;;5069609;28;20380;-87
2022/01/24 02:05:51;;;;;;;43.72;33.47;;;7.40;70.30;;;;;;5070599;28;20040;-87
2022/01/24 02:08:21;;;;;;;41.75;31.85;;;7.50;70.50;;;;;;5069215;28;20077;-88
2022/01/24 02:10:47;;;;;;;48.80;35.17;;;7.40;70.30;;;;;;5070830;28;20192;-88
2022/01/24 02:13:13;;;;;;;42.47;32.70;;;7.50;70.50;;;;;;5069399;28;20301;-87
2022/01/24 02:18:27;;;;;;;40.30;31.98;;;7.50;70.50;;;;;;5071547;28;20123;-86
2022/01/24 02:21:08;;;;;;;38.47;30.10;;;7.40;70.30;;;;;;5069558;28;20387;-86
2022/01/24 02:26:06;;;;;;;38.20;31.63;;;7.40;70.30;;;;;;5070397;28;20106;-86
2022/01/24 02:28:53;;;;;;;40.88;31.98;;;7.40;70.20;;;;;;5071184;28;20021;-88
2022/01/24 02:31:39;;;;;;;37.60;31.05;;;7.40;70.30;;;;;;5089192;28;20048;-87
2022/01/24 02:34:29;;;;;;;37.28;29.38;;;7.40;70.30;;;;;;5070228;28;20085;-87
2022/01/24 02:37:04;;;;;;;37.60;29.88;;;7.40;70.30;;;;;;5071500;28;20433;-85
2022/01/24 02:50:22;;;;;;;37.35;30.77;;;7.40;70.30;;;;;;5073753;28;20032;-84
2022/01/24 02:52:49;;;;;;;35.75;28.75;;;7.40;70.30;;;;;;5072321;28;20127;-88
2022/01/24 02:55:15;;;;;;;37.00;29.48;;;7.40;70.30;;;;;;5073413;28;20037;-86
2022/01/24 02:57:41;;;;;;;37.85;29.83;;;7.40;70.30;;;;;;5072104;28;20127;-85
2022/01/24 03:00:08;;;;;;;36.75;29.30;;;7.50;70.50;;;;;;5072329;28;20035;-88
2022/01/24 03:02:34;;;;;;;34.67;28.95;;;7.40;70.40;;;;;;5071884;28;20050;-89
2022/01/24 03:05:00;;;;;;;37.97;29.85;;;7.40;70.30;;;;;;5070944;28;20024;-88
2022/01/24 03:07:26;;;;;;;37.10;28.58;;;7.40;70.30;;;;;;5071696;28;20048;-88
2022/01/24 03:09:54;;;;;;;33.05;26.70;;;7.40;70.30;;;;;;5071709;28;20032;-88
2022/01/24 03:12:59;;;;;;;34.47;28.75;;;7.50;70.50;;;;;;5054678;28;20123;-88
2022/01/24 03:15:13;;;;;;;33.72;27.80;;;7.50;70.50;;;;;;5071455;28;20044;-88
2022/01/24 03:17:39;;;;;;;37.03;29.77;;;7.50;70.50;;;;;;5073114;28;20106;-88
2022/01/24 03:20:06;;;;;;;33.08;27.98;;;7.40;70.30;;;;;;5073050;28;20028;-88
2022/01/24 03:22:32;;;;;;;31.95;26.42;;;7.40;70.30;;;;;;5054365;28;20040;-87
2022/01/24 03:24:59;;;;;;;33.08;27.65;;;7.40;70.30;;;;;;5072379;28;20427;-88
2022/01/24 03:27:25;;;;;;;35.38;28.23;;;7.40;70.30;;;;;;5072892;28;20032;-87
2022/01/24 03:29:51;;;;;;;34.50;27.77;;;7.40;70.30;;;;;;5072741;28;20024;-88
2022/01/24 03:32:17;;;;;;;32.60;27.23;;;7.40;70.30;;;;;;5079988;28;20115;-87
2022/01/24 03:34:43;;;;;;;32.65;27.02;;;7.40;70.30;;;;;;5096249;28;20037;-88
2022/01/24 03:37:09;;;;;;;33.65;27.95;;;7.40;70.40;;;;;;5095329;28;20047;-89
2022/01/24 03:39:35;;;;;;;31.58;26.60;;;7.40;70.40;;;;;;5096432;28;20040;-89
2022/01/24 03:42:01;;;;;;;31.42;27.48;;;7.40;70.40;;;;;;5095309;28;20020;-85
2022/01/24 03:44:28;;;;;;;33.47;27.23;;;7.40;70.40;;;;;;5096814;28;20028;-88
2022/01/24 03:47:13;;;;;;;35.00;28.88;;;7.40;70.90;;;;;;5095947;28;20024;-92
2022/01/24 03:49:46;;;;;;;32.80;28.13;;;7.40;70.40;;;;;;5095836;28;20010;-90
2022/01/24 03:52:13;;;;;;;35.58;28.10;;;7.40;70.40;;;;;;5096324;28;20040;-88
2022/01/24 03:54:43;;;;;;;33.47;28.38;;;7.40;70.40;;;;;;5094595;28;20017;-87
2022/01/24 03:57:13;;;;;;;35.33;28.33;;;7.40;70.40;;;;;;5074153;28;20123;-89
2022/01/24 03:59:40;;;;;;;31.40;28.00;;;7.40;70.40;;;;;;5072277;28;20032;-89
2022/01/24 04:02:06;;;;;;;32.95;27.60;;;7.40;70.40;;;;;;5072147;28;20024;-89
2022/01/24 04:04:33;;;;;;;32.28;27.05;;;7.40;70.40;;;;;;5072644;28;20377;-85
2022/01/24 04:06:59;;;;;;;31.50;27.38;;;7.40;70.40;;;;;;5070779;28;20024;-85
2022/01/24 04:09:25;;;;;;;31.27;27.80;;;7.40;70.40;;;;;;5053914;28;20028;-85
2022/01/24 04:11:54;;;;;;;32.00;26.15;;;7.40;70.40;;;;;;5071534;28;20087;-86
2022/01/24 04:17:38;;;;;;;31.25;24.95;;;7.40;70.40;;;;;;5070146;28;20028;-86
2022/01/24 04:22:14;;;;;;;33.03;26.92;;;7.40;70.40;;;;;;5069858;28;20049;-85
2022/01/24 04:24:41;;;;;;;32.60;27.55;;;7.40;70.40;;;;;;5070782;28;20114;-85
2022/01/24 04:27:09;;;;;;;32.13;26.33;;;7.40;70.40;;;;;;5071118;28;20032;-86
2022/01/24 04:29:36;;;;;;;32.92;27.85;;;7.40;70.40;;;;;;5070366;28;20017;-86
2022/01/24 04:32:03;;;;;;;34.78;27.85;;;7.40;70.40;;;;;;5069721;28;20064;-86
2022/01/24 04:34:30;;;;;;;33.25;27.13;;;7.40;70.40;;;;;;5071928;28;20054;-86
2022/01/24 04:36:56;;;;;;;31.83;26.42;;;7.40;70.40;;;;;;5070893;28;20067;-84
2022/01/24 04:39:23;;;;;;;32.67;26.70;;;7.30;70.30;;;;;;5069688;28;20064;-82
2022/01/24 04:41:52;;;;;;;33.35;27.77;;;7.30;70.30;;;;;;5069120;28;20384;-85
2022/01/24 04:46:53;;;;;;;33.38;27.52;;;7.30;70.30;;;;;;5070185;28;20388;-87
2022/01/24 04:54:44;;;;;;;30.45;25.70;;;7.40;70.50;;;;;;5072827;28;20510;-87
2022/01/24 04:57:20;;;;;;;34.08;25.17;;;7.40;70.50;;;;;;5072298;28;20079;-87
2022/01/24 04:59:48;;;;;;;32.45;26.75;;;7.40;70.50;;;;;;5072871;28;20039;-87
2022/01/24 05:02:15;;;;;;;32.92;27.70;;;7.40;70.40;;;;;;5071810;28;20052;-88
2022/01/24 05:04:41;;;;;;;31.75;26.58;;;7.40;70.40;;;;;;5071655;28;20541;-85
2022/01/24 05:07:07;;;;;;;30.92;25.42;;;7.40;70.40;;;;;;5073165;28;20033;-85
2022/01/24 05:09:40;;;;;;;31.80;25.92;;;7.40;70.40;;;;;;5071919;28;20036;-84
2022/01/24 05:12:15;;;;;;;31.63;26.60;;;7.40;70.40;;;;;;5070302;28;20033;-85
2022/01/24 05:25:51;;;;;;;32.25;26.33;;;7.30;70.20;;;;;;5070939;28;20078;-87
2022/01/24 05:28:21;;;;;;;32.53;26.92;;;7.30;70.20;;;;;;5072864;28;20434;-89
2022/01/24 05:30:47;;;;;;;30.77;25.02;;;7.40;70.40;;;;;;5074437;28;20032;-86
2022/01/24 05:33:14;;;;;;;31.98;25.65;;;7.30;70.20;;;;;;5074297;28;20032;-86
2022/01/24 05:35:40;;;;;;;35.17;27.55;;;7.30;70.20;;;;;;5074766;28;20032;-86
2022/01/24 05:38:06;;;;;;;32.92;26.63;;;7.30;70.30;;;;;;5073952;28;20048;-86
2022/01/24 05:40:33;;;;;;;34.53;25.70;;;7.30;70.30;;;;;;5077858;28;20548;-84
2022/01/24 05:42:59;;;;;;;29.77;25.67;;;7.30;70.30;;;;;;5060180;28;20082;-86
2022/01/24 05:45:25;;;;;;;30.95;25.40;;;7.30;70.30;;;;;;5054274;28;20427;-86
2022/01/24 05:47:52;;;;;;;31.30;25.00;;;7.30;70.30;;;;;;5060607;28;20028;-85
2022/01/24 05:50:18;;;;;;;30.42;25.30;;;7.30;70.30;;;;;;5074986;28;20037;-85
2022/01/24 05:52:44;;;;;;;31.10;26.02;;;7.40;70.50;;;;;;5061912;28;20174;-86
2022/01/24 05:55:10;;;;;;;34.22;25.80;;;7.40;70.50;;;;;;5052655;28;20033;-87
2022/01/24 05:57:36;;;;;;;30.30;25.95;;;7.40;70.40;;;;;;5058501;28;20041;-87
2022/01/24 06:00:05;;;;;;;34.58;26.65;;;7.40;70.40;;;;;;5066036;28;20052;-88
2022/01/24 06:02:38;;;;;;;30.00;25.70;;;7.40;70.40;;;;;;5050432;28;20032;-87
2022/01/24 06:05:05;;;;;;;31.92;25.67;;;7.40;70.30;;;;;;5059033;28;20059;-87
2022/01/24 06:07:31;;;;;;;32.00;25.27;;;7.40;70.40;;;;;;5057889;28;20037;-87
2022/01/24 06:09:57;;;;;;;32.75;27.20;;;7.40;70.30;;;;;;5070867;28;20037;-88
2022/01/24 06:12:24;;;;;;;31.15;25.30;;;7.40;70.30;;;;;;5069100;28;20025;-86
2022/01/24 06:14:50;;;;;;;29.65;24.88;;;7.40;70.30;;;;;;5069432;28;20040;-89
2022/01/24 06:17:17;;;;;;;31.70;25.80;;;7.40;70.30;;;;;;5067096;28;20024;-88
2022/01/24 06:19:46;;;;;;;33.08;26.33;;;7.40;70.30;;;;;;5064643;28;20095;-88
2022/01/24 06:22:13;;;;;;;29.00;24.63;;;7.40;70.30;;;;;;5071201;28;20348;-87
2022/01/24 06:24:39;;;;;;;28.95;24.13;;;7.40;70.30;;;;;;5050492;28;20064;-86
2022/01/24 06:27:05;;;;;;;29.45;25.35;;;7.40;70.30;;;;;;5050457;28;20035;-86
2022/01/24 06:29:31;;;;;;;30.60;25.45;;;7.40;70.30;;;;;;5059275;28;20028;-86
2022/01/24 06:31:57;;;;;;;31.02;25.48;;;7.40;70.30;;;;;;5057222;28;20024;-82
2022/01/24 06:34:23;;;;;;;30.02;25.40;;;7.30;70.10;;;;;;5054981;28;20035;-89
2022/01/24 06:36:49;;;;;;;30.33;24.58;;;7.40;70.30;;;;;;5056783;28;20090;-90
2022/01/24 06:39:15;;;;;;;28.05;23.85;;;7.40;70.30;;;;;;5040422;28;20500;-91
2022/01/24 06:41:43;;;;;;;28.10;23.40;;;7.30;70.10;;;;;;5067412;28;20488;-95
2022/01/24 06:44:09;;;;;;;27.27;22.70;;;7.40;70.40;;;;;;5052279;28;20658;-88
2022/01/24 06:46:35;;;;;;;29.00;24.38;;;7.40;70.50;;;;;;5056077;28;20129;-86
2022/01/24 06:49:02;;;;;;;26.70;22.60;;;7.40;70.50;;;;;;5067027;28;20749;-85
2022/01/24 06:51:28;;;;;;;27.25;22.98;;;7.50;70.60;;;;;;5066376;28;20075;-89
2022/01/24 06:53:54;;;;;;;30.52;24.27;;;7.50;70.50;;;;;;5084032;28;20024;-88
2022/01/24 06:56:20;;;;;;;28.38;23.98;;;7.50;70.50;;;;;;5078745;28;20040;-90
2022/01/24 06:58:46;;;;;;;28.50;23.90;;;7.50;70.50;;;;;;5066264;28;20128;-95
2022/01/24 07:01:13;;;;;;;28.30;24.65;;;7.50;70.40;;;;;;5070423;28;20510;-88
2022/01/24 07:03:38;;;;;;;29.20;23.38;;;7.50;70.40;;;;;;5065617;28;20024;-88
2022/01/24 07:06:05;;;;;;;28.25;23.63;;;7.50;70.40;;;;;;5065814;28;20032;-88
2022/01/24 07:08:31;;;;;;;27.65;22.85;;;7.60;70.50;;;;;;5065514;28;20032;-82
2022/01/24 07:10:57;;;;;;;29.73;24.27;;;7.50;70.30;;;;;;5055756;28;20424;-82
2022/01/24 07:13:23;;;;;;;29.40;24.58;;;7.50;70.30;;;;;;5055502;28;20174;-90
2022/01/24 07:15:53;;;;;;;27.08;23.65;;;7.50;70.30;;;;;;5068060;28;20040;-90
2022/01/24 07:20:56;;;;;;;29.90;23.95;;;7.50;70.40;;;;;;5065014;28;20127;-90
2022/01/24 07:23:22;;;;;;;27.20;22.75;;;7.50;70.30;;;;;;5049126;28;20036;-85
2022/01/24 07:25:48;;;;;;;26.10;21.55;;;7.50;70.30;;;;;;5054465;28;20029;-83
2022/01/24 07:28:15;;;;;;;27.83;21.83;;;7.50;70.50;;;;;;5061342;28;20028;-84
2022/01/24 07:30:43;;;;;;;27.13;22.23;;;7.60;71.00;;;;;;5066449;28;20368;-95
2022/01/24 07:33:09;;;;;;;26.23;22.00;;;7.60;71.10;;;;;;5061485;28;20043;-89
2022/01/24 07:35:35;;;;;;;24.85;21.25;;;7.70;71.30;;;;;;5052122;28;20218;-91
2022/01/24 07:38:03;;;;;;;26.60;22.15;;;7.70;71.30;;;;;;5062684;28;20083;-87
2022/01/24 07:40:29;;;;;;;26.35;21.08;;;7.70;71.40;;;;;;5067881;28;20479;-87
2022/01/24 07:43:08;;;;;;;28.67;22.40;;;7.70;71.30;;;;;;5067810;28;20121;-89
2022/01/24 07:45:34;;;;;;;24.23;20.48;;;7.70;71.30;;;;;;5049584;28;20439;-86
2022/01/24 07:48:01;;;;;;;25.63;22.38;;;7.70;71.30;;;;;;5049428;28;20032;-81
2022/01/24 07:50:28;;;;;;;26.92;21.95;;;7.70;71.20;;;;;;5066830;28;20594;-84
2022/01/24 07:52:55;;;;;;;26.38;22.67;;;7.70;71.20;;;;;;5066283;28;20036;-88
2022/01/24 07:55:22;;;;;;;26.10;21.80;;;7.70;71.20;;;;;;5064597;28;20048;-92
2022/01/24 07:57:48;;;;;;;26.60;22.15;;;7.70;71.20;;;;;;5067567;28;20041;-91
2022/01/24 08:00:15;;;;;;;26.92;21.20;;;7.70;71.20;;;;;;5050836;28;20096;-90
2022/01/24 08:02:41;;;;;;;27.17;22.83;;;7.70;71.20;;;;;;5068620;28;20117;-92
2022/01/24 08:05:09;;;;;;;26.70;23.08;;;7.70;71.20;;;;;;5051102;28;20368;-90
2022/01/24 08:07:37;;;;;;;28.95;23.42;;;7.70;71.20;;;;;;5067212;28;20533;-88
2022/01/24 08:10:04;;;;;;;24.38;21.63;;;7.70;71.10;;;;;;5050358;28;20032;-88
2022/01/24 08:12:31;;;;;;;27.25;23.33;;;7.70;71.10;;;;;;5049734;28;20127;-87
2022/01/24 08:15:00;;;;;;;26.10;22.58;;;7.60;70.90;;;;;;5068144;28;20333;-88
2022/01/24 08:17:26;;;;;;;25.05;20.88;;;7.60;71.40;;;;;;5067836;28;20108;-88
2022/01/24 08:19:52;;;;;;;26.10;22.67;;;7.60;70.80;;;;;;5066919;28;20056;-89
2022/01/24 08:22:19;;;;;;;27.60;23.25;;;7.60;70.80;;;;;;5067261;28;20048;-88
2022/01/24 08:24:46;;;;;;;27.55;23.52;;;7.60;70.80;;;;;;5067588;28;20451;-90
2022/01/24 08:27:15;;;;;;;27.23;23.42;;;7.60;70.80;;;;;;5067613;28;20115;-90
2022/01/24 08:29:43;;;;;;;27.08;22.90;;;7.60;70.70;;;;;;5051009;28;20031;-89
2022/01/24 08:32:10;;;;;;;27.55;23.45;;;7.60;70.70;;;;;;5066782;28;20396;-87
2022/01/24 08:34:36;;;;;;;26.67;23.70;;;7.60;70.70;;;;;;5068405;28;20063;-90
2022/01/24 08:37:02;;;;;;;28.83;22.95;;;7.60;70.70;;;;;;5067030;28;20560;-90
2022/01/24 08:39:29;;;;;;;26.73;22.77;;;7.60;70.70;;;;;;5051027;28;20412;-93
2022/01/24 08:46:48;;;;;;;26.85;21.80;;;7.70;70.80;;;;;;5068411;28;20098;-95
2022/01/24 08:49:14;;;;;;;29.00;22.27;;;7.70;70.80;;;;;;5068642;28;20366;-92
2022/01/24 08:51:40;;;;;;;25.25;21.70;;;7.70;70.70;;;;;;5067139;28;20024;-87
2022/01/24 08:54:08;;;;;;;28.13;22.20;;;7.70;70.70;;;;;;5059400;28;20029;-87
2022/01/24 08:56:34;;;;;;;27.20;22.88;;;7.70;70.60;;;;;;5058100;28;20538;-87
2022/01/24 08:59:02;;;;;;;26.75;22.55;;;7.70;70.60;;;;;;5066054;28;20041;-89
2022/01/24 09:01:28;;;;;;;29.05;23.60;;;7.70;70.50;;;;;;5068168;28;20044;-89
2022/01/24 09:03:54;;;;;;;27.88;22.50;;;7.70;70.50;;;;;;5067479;28;20227;-89
2022/01/24 09:06:21;;;;;;;26.02;22.27;;;7.70;70.50;;;;;;5069403;28;20403;-90
2022/01/24 09:08:55;;;;;;;25.52;21.80;;;7.80;70.60;;;;;;5036194;28;20032;-84
2022/01/24 09:11:34;;;;;;;26.95;22.50;;;7.70;70.40;;;;;;5068277;28;20029;-85
2022/01/24 09:14:02;;;;;;;26.75;21.95;;;7.70;70.30;;;;;;5075881;28;20028;-92
2022/01/24 09:16:28;;;;;;;25.77;21.20;;;7.70;70.30;;;;;;5065874;28;20086;-83
2022/01/24 09:18:54;;;;;;;29.58;23.30;;;7.80;70.50;;;;;;5067251;28;20044;-90
2022/01/24 09:21:22;;;;;;;25.27;21.58;;;7.70;70.30;;;;;;5069502;28;20037;-90
2022/01/24 09:23:48;;;;;;;28.05;21.75;;;7.70;70.20;;;;;;5066941;28;20129;-89
2022/01/24 09:26:14;;;;;;;27.45;21.88;;;7.80;70.40;;;;;;5067561;28;20170;-87
2022/01/24 09:28:40;;;;;;;27.90;22.15;;;7.80;70.30;;;;;;5062254;28;20071;-89
2022/01/24 09:31:06;;;;;;;27.52;22.40;;;7.80;70.30;;;;;;5047772;28;20037;-94
2022/01/24 09:33:33;;;;;;;27.30;22.10;;;7.80;70.30;;;;;;5046623;28;20439;-85
2022/01/24 09:36:00;;;;;;;25.83;21.20;;;7.80;70.30;;;;;;5047130;28;20025;-87
2022/01/24 09:38:32;;;;;;;27.20;22.23;;;7.90;70.40;;;;;;5028530;28;20646;-82
2022/01/24 09:41:04;;;;;;;29.60;22.50;;;7.90;70.40;;;;;;5056701;28;20429;-83
2022/01/24 09:43:30;;;;;;;28.10;22.45;;;7.90;70.30;;;;;;5060687;28;20391;-83
2022/01/24 09:45:57;;;;;;;27.00;21.58;;;7.90;70.30;;;;;;5065782;28;20039;-80
2022/01/24 09:48:23;;;;;;;27.17;22.05;;;7.90;70.20;;;;;;5066770;28;20029;-81
2022/01/24 09:50:52;;;;;;;25.77;20.90;;;8.00;70.30;;;;;;5065369;28;20024;-82
2022/01/24 09:53:20;;;;;;;28.50;21.20;;;8.00;70.30;;;;;;5065147;28;20115;-81
2022/01/24 09:55:46;;;;;;;29.63;23.30;;;8.00;70.20;;;;;;5064275;28;20479;-81
2022/01/24 09:58:12;;;;;;;28.52;23.17;;;8.00;70.10;;;;;;5065107;28;20048;-82
2022/01/24 10:00:38;;;;;;;26.45;21.75;;;8.00;70.10;;;;;;5067292;28;20120;-82
2022/01/24 10:03:07;;;;;;;25.20;20.92;;;8.00;70.10;;;;;;5065668;28;20033;-82
2022/01/24 10:05:37;;;;;;;27.35;20.50;;;8.10;70.20;;;;;;5066717;28;20537;-82
2022/01/24 10:08:06;;;;;;;27.05;22.13;;;8.10;70.10;;;;;;5066183;28;20055;-82
2022/01/24 10:10:49;;;;;;;27.60;22.08;;;8.10;70.10;;;;;;5066926;28;20021;-82
2022/01/24 10:19:15;;;;;;;28.08;22.73;;;8.10;70.00;;;;;;5073514;28;20463;-83
2022/01/24 10:21:56;;;;;;;27.85;21.83;;;8.10;69.90;;;;;;5055266;28;20283;-82
2022/01/24 10:24:56;;;;;;;30.17;24.05;;;8.10;69.90;;;;;;5071676;28;20025;-80
2022/01/24 10:27:25;;;;;;;28.85;22.02;;;8.20;70.00;;;;;;5068738;28;20044;-90
2022/01/24 10:29:58;;;;;;;26.88;20.80;;;8.20;70.00;;;;;;5071372;28;20032;-85
2022/01/24 10:32:27;;;;;;;;;;;8.20;69.90;;;;;;5070476;28;21355;-88
2022/01/24 10:34:53;;;;;;;26.30;21.17;;;8.20;69.90;;;;;;5051146;28;19919;-87
2022/01/24 10:37:24;;;;;;;27.85;21.95;;;8.20;69.80;;;;;;5051574;28;20025;-81
2022/01/24 10:39:58;;;;;;;26.85;21.20;;;8.30;70.00;;;;;;5071590;28;20119;-92
2022/01/24 10:45:02;;;;;;;28.98;22.42;;;8.30;69.90;;;;;;5072663;28;20021;-94
2022/01/24 10:47:31;;;;;;;28.23;22.48;;;8.30;69.80;;;;;;5072798;28;20039;-94
2022/01/24 10:49:59;;;;;;;27.48;21.25;;;8.30;69.80;;;;;;5074615;28;20059;-94
2022/01/24 10:52:33;;;;;;;27.25;20.48;;;8.40;69.90;;;;;;5071909;28;20048;-91
2022/01/24 10:55:16;;;;;;;28.00;21.75;;;8.40;69.80;;;;;;5054856;28;20028;-92
2022/01/24 10:57:44;;;;;;;28.65;22.58;;;8.40;69.80;;;;;;5071174;28;20028;-92
2022/01/24 11:00:20;;;;;;;26.00;19.25;;;8.40;69.70;;;;;;5072533;28;20086;-92
2022/01/24 11:02:51;;;;;;;28.95;21.45;;;8.40;69.70;;;;;;5070971;28;20035;-91
2022/01/24 11:05:21;;;;;;;29.88;22.45;;;8.40;69.60;;;;;;5069679;28;20025;-90
2022/01/24 11:07:52;;;;;;;29.38;21.05;;;8.50;69.80;;;;;;5069758;28;20490;-90
2022/01/24 11:10:19;;;;;;;27.38;22.15;;;8.50;69.80;;;;;;5070730;28;20074;-93
2022/01/24 11:12:46;;;;;;;30.67;22.63;;;8.50;69.70;;;;;;5069518;28;20203;-90
2022/01/24 11:15:12;;;;;;;26.92;21.33;;;8.50;69.70;;;;;;5052658;28;20066;-92
2022/01/24 11:17:40;;;;;;;27.88;21.60;;;8.50;69.60;;;;;;5070306;28;20040;-93
2022/01/24 11:20:11;;;;;;;28.08;21.63;;;8.60;69.80;;;;;;5068760;28;20055;-90
2022/01/24 11:22:43;;;;;;;28.90;21.90;;;8.60;69.70;;;;;;5069955;28;20113;-91
2022/01/24 11:25:11;;;;;;;29.40;22.67;;;8.60;69.60;;;;;;5073607;28;20074;-89
2022/01/24 11:27:40;;;;;;;29.08;22.65;;;8.60;69.60;;;;;;5051904;28;20139;-92
2022/01/24 11:30:12;;;;;;;27.85;21.35;;;8.60;69.50;;;;;;5068973;28;20040;-89
2022/01/24 11:32:57;;;;;;;27.83;20.80;;;8.60;69.70;;;;;;5068550;28;20037;-90
2022/01/24 11:35:38;;;;;;;29.88;21.10;;;8.60;69.50;;;;;;5069724;28;20071;-90
2022/01/24 11:38:24;;;;;;;27.73;21.48;;;8.60;69.40;;;;;;5069585;28;20040;-93
2022/01/24 11:40:54;;;;;;;28.60;21.45;;;8.70;69.50;;;;;;5069846;28;20448;-95
2022/01/24 11:43:40;;;;;;;27.30;21.17;;;8.60;69.30;;;;;;5070835;28;20053;-94
2022/01/24 11:46:34;;;;;;;26.90;21.52;;;8.70;69.50;;;;;;5070951;28;20112;-94
2022/01/24 11:49:07;;;;;;;28.83;22.38;;;8.70;69.50;;;;;;5081268;28;20032;-92
2022/01/24 11:51:34;;;;;;;26.60;20.88;;;8.70;69.40;;;;;;5091495;28;20051;-91
2022/01/24 11:54:01;;;;;;;27.42;20.83;;;8.70;69.40;;;;;;5092346;28;20016;-93
2022/01/24 11:56:31;;;;;;;28.20;21.73;;;8.70;69.40;;;;;;5092766;28;20028;-88
2022/01/24 11:59:21;;;;;;;26.95;20.63;;;8.70;69.40;;;;;;5109129;28;20059;-92
2022/01/24 12:01:54;;;;;;;22.33;17.55;;;8.80;69.60;;;;;;5093187;28;20048;-93
2022/01/24 12:04:51;;;;;;;21.98;16.38;;;8.80;69.60;;;;;;5093964;28;20033;-89
2022/01/24 12:07:19;;;;;;;24.52;18.33;;;8.80;69.70;;;;;;5092591;28;20155;-84
2022/01/24 12:09:45;;;;;;;25.65;18.80;;;8.90;69.80;;;;;;5092455;28;20067;-90
2022/01/24 12:12:47;;;;;;;23.88;18.08;;;9.00;70.00;;;;;;5075188;28;20224;-87
2022/01/24 12:15:38;;;;;;;23.88;17.83;;;9.00;69.90;;;;;;5082186;28;20035;-86
2022/01/24 12:18:06;;;;;;;24.70;18.75;;;9.10;69.90;;;;;;5069778;28;20297;-88
2022/01/24 12:20:34;;;;;;;24.58;17.52;;;9.10;69.80;;;;;;5069120;28;20130;-87
2022/01/24 12:23:24;;;;;;;28.15;19.20;;;9.10;69.70;;;;;;5069694;28;20039;-89
2022/01/24 12:25:58;;;;;;;26.70;20.27;;;9.20;69.80;;;;;;5035559;28;20074;-87
2022/01/24 12:28:30;;;;;;;24.90;19.52;;;9.20;69.80;;;;;;5051953;28;20041;-86
2022/01/24 12:31:21;;;;;;;24.58;18.45;;;9.20;69.70;;;;;;5068594;28;20021;-88
2022/01/24 12:33:53;;;;;;;26.38;19.30;;;9.20;69.70;;;;;;5079401;28;20140;-87
2022/01/24 12:36:39;;;;;;;26.02;18.85;;;9.30;69.80;;;;;;5079835;28;20069;-89
2022/01/24 12:39:20;;;;;;;27.30;19.73;;;9.30;69.70;;;;;;5079670;28;20043;-87
2022/01/24 12:41:51;;;;;;;24.45;18.38;;;9.30;69.70;;;;;;5050461;28;20036;-87
2022/01/24 12:47:05;;;;;;;25.33;18.73;;;9.30;69.70;;;;;;5068113;28;20040;-85
2022/01/24 12:49:32;;;;;;;23.80;18.05;;;9.30;69.60;;;;;;5067668;28;20082;-86
2022/01/24 12:52:06;;;;;;;24.30;18.63;;;9.30;69.60;;;;;;5067850;28;20043;-86
2022/01/24 12:54:35;;;;;;;23.63;18.35;;;9.30;69.60;;;;;;5050436;28;20138;-85
2022/01/24 12:57:10;;;;;;;25.65;18.45;;;9.30;69.60;;;;;;5066322;28;20029;-83
2022/01/24 12:59:38;;;;;;;23.55;19.35;;;9.30;69.60;;;;;;5067763;28;20127;-85
2022/01/24 13:02:06;;;;;;;25.30;18.48;;;9.30;69.50;;;;;;5067268;28;20031;-83
2022/01/24 13:04:37;;;;;;;24.42;19.48;;;9.30;69.50;;;;;;5067252;28;20028;-83
2022/01/24 13:07:05;;;;;;;26.17;20.13;;;9.30;69.50;;;;;;5067395;28;20029;-86
2022/01/24 13:09:34;;;;;;;25.27;18.50;;;9.30;69.40;;;;;;5067315;28;20029;-83
2022/01/24 13:12:09;;;;;;;26.80;20.20;;;9.30;69.40;;;;;;5066496;28;20071;-89
2022/01/24 13:14:48;;;;;;;25.58;19.95;;;9.30;69.40;;;;;;5067253;28;20029;-90
2022/01/24 13:22:57;;;;;;;25.70;20.85;;;9.30;69.30;;;;;;5046915;28;20041;-87
2022/01/24 13:25:31;;;;;;;27.85;20.67;;;9.30;69.30;;;;;;5029877;28;20146;-87
2022/01/24 13:28:01;;;;;;;25.75;20.55;;;9.30;69.30;;;;;;5049589;28;20024;-87
2022/01/24 13:30:33;;;;;;;24.92;18.70;;;9.40;70.00;;;;;;5067882;28;20033;-87
2022/01/24 13:33:08;;;;;;;27.33;20.63;;;9.30;69.20;;;;;;5067348;28;20064;-87
2022/01/24 13:35:37;;;;;;;27.40;21.52;;;9.30;69.20;;;;;;5067022;28;20040;-88
2022/01/24 13:38:03;;;;;;;27.67;20.27;;;9.30;69.20;;;;;;5066999;28;20039;-88
2022/01/24 13:40:30;;;;;;;28.70;22.85;;;9.30;69.20;;;;;;5068152;28;20209;-87
2022/01/24 13:42:56;;;;;;;24.23;19.30;;;9.30;69.20;;;;;;5068025;28;20055;-87
2022/01/24 13:45:22;;;;;;;27.02;19.90;;;9.30;69.20;;;;;;5068168;28;20025;-88
2022/01/24 13:47:59;;;;;;;27.10;21.45;;;9.30;69.20;;;;;;5066472;28;20035;-88
2022/01/24 13:50:27;;;;;;;25.75;20.05;;;9.30;69.10;;;;;;5069761;28;20251;-87
2022/01/24 13:52:53;;;;;;;27.17;20.55;;;9.30;69.10;;;;;;5071322;28;20123;-86
2022/01/24 13:55:22;;;;;;;27.90;20.23;;;9.30;69.10;;;;;;5070236;28;20028;-86
2022/01/24 13:57:54;;;;;;;28.00;21.00;;;9.30;69.10;;;;;;5069683;28;20036;-86
2022/01/24 14:00:26;;;;;;;27.85;20.80;;;9.30;69.10;;;;;;5069532;28;20125;-85
2022/01/24 14:03:07;;;;;;;29.25;20.67;;;9.30;69.10;;;;;;5069513;28;20148;-85
2022/01/24 14:05:33;;;;;;;28.60;21.13;;;9.30;69.10;;;;;;5069556;28;20040;-87
2022/01/24 14:08:13;;;;;;;27.25;20.90;;;9.30;69.10;;;;;;5071043;28;20097;-85
2022/01/24 14:10:39;;;;;;;27.25;21.80;;;9.30;69.00;;;;;;5070668;28;20052;-84
2022/01/24 14:13:07;;;;;;;27.73;21.05;;;9.30;69.00;;;;;;5069084;28;20036;-85
2022/01/24 14:20:51;;;;;;;26.63;20.70;;;9.30;69.00;;;;;;5069394;28;20041;-84
2022/01/24 14:23:26;;;;;;;27.60;21.52;;;9.20;68.80;;;;;;5068897;28;20064;-86
2022/01/24 14:25:52;;;;;;;27.60;22.13;;;9.30;69.00;;;;;;5052619;28;20116;-86
2022/01/24 14:28:22;;;;;;;27.75;20.83;;;9.30;69.00;;;;;;5070930;28;20056;-90
2022/01/24 14:30:49;;;;;;;27.20;20.35;;;9.30;69.00;;;;;;5069752;28;20117;-87
2022/01/24 14:33:22;;;;;;;24.85;21.08;;;9.30;69.00;;;;;;5069582;28;20032;-87
2022/01/24 14:36:04;;;;;;;28.77;21.73;;;9.30;69.00;;;;;;5071046;28;20043;-86
2022/01/24 14:38:34;;;;;;;27.80;20.77;;;9.30;69.00;;;;;;5052177;28;20051;-88
2022/01/24 14:41:14;;;;;;;28.20;19.75;;;9.30;68.90;;;;;;5070894;28;20269;-87
2022/01/24 14:46:37;;;;;;;25.08;20.02;;;9.30;69.10;;;;;;5071224;28;20028;-89
2022/01/24 14:49:05;;;;;;;25.55;19.70;;;9.30;69.10;;;;;;5071158;28;20414;-87
2022/01/24 14:51:34;;;;;;;25.17;19.80;;;9.30;69.10;;;;;;5069628;28;20067;-86